Time;durP1;ratioP1;P1;durP2;ratioP2;P2;SDS_P1;SDS_P2;PMS_P1;PMS_P2;Temp;Humidity;BMP_temperature;BMP_pressure;BME280_temperature;BME280_humidity;BME280_pressure;Samples;Min_cycle;Max_cycle;Signal;HPM_P1;HPM_P2
2021/09/13 00:00:26;;;;;;;5.63;3.47;;;;;;;;;;5058529;28;20108;-79
2021/09/13 00:02:51;;;;;;;5.23;3.57;;;;;;;;;;5058164;28;20037;-79
2021/09/13 00:05:17;;;;;;;5.30;3.40;;;;;;;;;;5058233;28;20055;-79
2021/09/13 00:07:42;;;;;;;5.43;3.40;;;;;;;;;;5058138;28;20029;-79
2021/09/13 00:10:08;;;;;;;4.87;3.13;;;;;;;;;;5058438;28;20021;-79
2021/09/13 00:12:33;;;;;;;4.97;3.30;;;;;;;;;;5057260;28;20033;-79
2021/09/13 00:14:59;;;;;;;4.67;3.57;;;;;;;;;;5057390;28;20035;-79
2021/09/13 00:17:24;;;;;;;5.07;3.27;;;;;;;;;;5058416;28;20071;-78
2021/09/13 00:19:50;;;;;;;7.33;3.83;;;;;;;;;;5057994;28;20037;-78
2021/09/13 00:22:15;;;;;;;5.70;3.90;;;;;;;;;;5056832;28;20451;-80
2021/09/13 00:24:40;;;;;;;6.47;4.03;;;;;;;;;;5040531;28;20033;-79
2021/09/13 00:27:06;;;;;;;5.20;3.90;;;;;;;;;;5057125;28;20470;-78
2021/09/13 00:29:31;;;;;;;7.07;4.67;;;;;;;;;;5057051;28;20025;-79
2021/09/13 00:31:56;;;;;;;5.57;4.00;;;;;;;;;;5057614;28;20033;-79
2021/09/13 00:34:22;;;;;;;5.57;4.00;;;;;;;;;;5058921;28;20087;-79
2021/09/13 00:36:47;;;;;;;9.03;4.37;;;;;;;;;;5061195;28;20021;-79
2021/09/13 00:39:12;;;;;;;7.67;4.47;;;;;;;;;;5060675;28;20029;-79
2021/09/13 00:41:38;;;;;;;6.23;4.40;;;;;;;;;;5069851;28;20033;-79
2021/09/13 00:44:03;;;;;;;8.00;4.20;;;;;;;;;;5068165;28;20116;-79
2021/09/13 00:46:29;;;;;;;7.73;3.93;;;;;;;;;;5067613;28;20028;-79
2021/09/13 00:48:54;;;;;;;5.47;3.70;;;;;;;;;;5059066;28;20021;-79
2021/09/13 00:51:19;;;;;;;5.50;4.07;;;;;;;;;;5057098;28;20454;-79
2021/09/13 00:53:45;;;;;;;5.23;3.50;;;;;;;;;;5057799;28;20082;-79
2021/09/13 00:56:10;;;;;;;4.73;3.53;;;;;;;;;;5056204;28;20459;-80
2021/09/13 00:58:37;;;;;;;4.10;3.40;;;;;;;;;;5056864;28;20390;-79
2021/09/13 01:01:04;;;;;;;4.22;3.05;;;;;;;;;;5058008;28;20036;-79
2021/09/13 01:03:29;;;;;;;;;;;;;;;;;;5057519;28;20067;-79
2021/09/13 01:05:54;;;;;;;5.27;3.20;;;;;;;;;;5057746;28;19912;-79
2021/09/13 01:08:21;;;;;;;6.10;3.63;;;;;;;;;;5055880;28;20386;-79
2021/09/13 01:10:47;;;;;;;5.32;3.25;;;;;;;;;;5056973;28;20104;-79
2021/09/13 01:13:13;;;;;;;8.18;3.40;;;;;;;;;;5056651;28;20056;-79
2021/09/13 01:15:39;;;;;;;7.50;4.20;;;;;;;;;;5057015;28;20397;-79
2021/09/13 01:18:04;;;;;;;5.93;4.07;;;;;;;;;;5056076;28;20455;-79
2021/09/13 01:20:30;;;;;;;5.47;4.13;;;;;;;;;;5057430;28;20029;-78
2021/09/13 01:22:59;;;;;;;6.37;4.63;;;;;;;;;;5056961;28;20021;-79
2021/09/13 01:25:24;;;;;;;7.28;4.30;;;;;;;;;;5055566;28;20094;-79
2021/09/13 01:27:49;;;;;;;6.47;4.50;;;;;;;;;;5055446;28;20072;-79
2021/09/13 01:30:15;;;;;;;8.90;4.60;;;;;;;;;;5056472;28;20036;-79
2021/09/13 01:32:40;;;;;;;6.60;5.13;;;;;;;;;;5056748;28;20021;-79
2021/09/13 01:35:06;;;;;;;5.80;4.75;;;;;;;;;;5055678;28;20031;-78
2021/09/13 01:37:31;;;;;;;9.23;5.17;;;;;;;;;;5056323;28;20509;-79
2021/09/13 01:39:57;;;;;;;6.57;4.90;;;;;;;;;;5056266;28;20112;-80
2021/09/13 01:42:22;;;;;;;6.23;5.07;;;;;;;;;;5056349;28;20107;-80
2021/09/13 01:44:47;;;;;;;8.50;5.23;;;;;;;;;;5055013;28;20512;-79
2021/09/13 01:47:13;;;;;;;7.47;4.73;;;;;;;;;;5055224;28;20021;-79
2021/09/13 01:49:38;;;;;;;8.47;5.13;;;;;;;;;;5056470;28;20111;-79
2021/09/13 01:52:04;;;;;;;6.93;5.10;;;;;;;;;;5056215;28;20060;-79
2021/09/13 01:54:29;;;;;;;8.03;5.20;;;;;;;;;;5056079;28;20043;-80
2021/09/13 01:56:54;;;;;;;8.33;5.60;;;;;;;;;;5055463;28;20442;-80
2021/09/13 01:59:20;;;;;;;6.90;5.68;;;;;;;;;;5056254;28;20025;-80
2021/09/13 02:01:45;;;;;;;7.43;5.17;;;;;;;;;;5056944;28;20332;-80
2021/09/13 02:04:10;;;;;;;6.43;4.78;;;;;;;;;;5055539;28;20040;-80
2021/09/13 02:06:36;;;;;;;6.27;5.10;;;;;;;;;;5055966;28;20040;-79
2021/09/13 02:09:01;;;;;;;6.32;5.13;;;;;;;;;;5055790;28;20133;-80
2021/09/13 02:11:27;;;;;;;7.83;5.47;;;;;;;;;;5055910;28;20028;-80
2021/09/13 02:13:52;;;;;;;7.00;5.88;;;;;;;;;;5055444;28;20029;-80
2021/09/13 02:16:18;;;;;;;9.10;5.75;;;;;;;;;;5055631;28;20025;-80
2021/09/13 02:18:43;;;;;;;6.77;5.33;;;;;;;;;;5055421;28;20431;-80
2021/09/13 02:21:09;;;;;;;12.40;6.18;;;;;;;;;;5054684;28;20028;-80
2021/09/13 02:23:34;;;;;;;7.60;5.60;;;;;;;;;;5055651;28;20025;-80
2021/09/13 02:25:59;;;;;;;7.30;5.37;;;;;;;;;;5055659;28;20032;-80
2021/09/13 02:28:25;;;;;;;8.50;5.38;;;;;;;;;;5055620;28;20418;-80
2021/09/13 02:30:50;;;;;;;7.70;5.70;;;;;;;;;;5054577;28;20025;-80
2021/09/13 02:33:17;;;;;;;5.72;5.00;;;;;;;;;;5055517;28;20029;-80
2021/09/13 02:35:42;;;;;;;;;;;;;;;;;;5056195;28;20017;-80
2021/09/13 02:38:08;;;;;;;7.03;6.00;;;;;;;;;;5054341;28;19909;-80
2021/09/13 02:40:33;;;;;;;7.83;6.37;;;;;;;;;;5055094;28;20554;-81
2021/09/13 02:42:59;;;;;;;10.97;5.80;;;;;;;;;;5055390;28;20465;-80
2021/09/13 02:45:24;;;;;;;8.10;5.88;;;;;;;;;;5053865;28;20143;-80
2021/09/13 02:47:49;;;;;;;7.28;6.13;;;;;;;;;;5054949;28;20033;-79
2021/09/13 02:50:15;;;;;;;9.27;6.57;;;;;;;;;;5055026;28;20048;-80
2021/09/13 02:52:40;;;;;;;8.17;6.57;;;;;;;;;;5056262;28;20045;-80
2021/09/13 02:55:06;;;;;;;6.77;5.70;;;;;;;;;;5054923;28;20090;-80
2021/09/13 02:57:32;;;;;;;10.47;6.57;;;;;;;;;;5055013;28;20025;-80
2021/09/13 02:59:57;;;;;;;12.02;6.10;;;;;;;;;;5055335;28;20029;-80
2021/09/13 03:02:22;;;;;;;7.93;6.27;;;;;;;;;;5054945;28;20087;-79
2021/09/13 03:04:48;;;;;;;7.72;5.65;;;;;;;;;;5055667;28;20028;-80
2021/09/13 03:07:13;;;;;;;10.15;6.80;;;;;;;;;;5055067;28;20086;-79
2021/09/13 03:09:39;;;;;;;8.27;6.22;;;;;;;;;;5054193;28;20063;-79
2021/09/13 03:12:06;;;;;;;11.90;7.43;;;;;;;;;;5055397;28;20044;-80
2021/09/13 03:14:31;;;;;;;8.95;7.13;;;;;;;;;;5054325;28;20441;-79
2021/09/13 03:16:57;;;;;;;10.55;7.85;;;;;;;;;;5058923;28;20075;-80
2021/09/13 03:19:22;;;;;;;10.30;7.90;;;;;;;;;;5057812;28;20086;-79
2021/09/13 03:21:48;;;;;;;10.75;7.57;;;;;;;;;;5057861;28;20025;-79
2021/09/13 03:24:13;;;;;;;11.35;8.65;;;;;;;;;;5057914;28;20021;-80
2021/09/13 03:26:39;;;;;;;13.63;8.60;;;;;;;;;;5057912;28;20036;-80
2021/09/13 03:29:04;;;;;;;11.95;8.00;;;;;;;;;;5057831;28;20025;-80
2021/09/13 03:31:29;;;;;;;12.17;8.23;;;;;;;;;;5057728;28;20032;-79
2021/09/13 03:33:55;;;;;;;10.25;8.23;;;;;;;;;;5058586;28;20025;-78
2021/09/13 03:36:20;;;;;;;11.82;8.48;;;;;;;;;;5058390;28;20438;-79
2021/09/13 03:38:45;;;;;;;12.70;8.55;;;;;;;;;;5057322;28;20036;-78
2021/09/13 03:41:11;;;;;;;14.93;9.50;;;;;;;;;;5058745;28;20052;-78
2021/09/13 03:43:36;;;;;;;11.93;8.30;;;;;;;;;;5058147;28;20544;-78
2021/09/13 03:46:01;;;;;;;13.13;9.27;;;;;;;;;;5057429;28;20454;-78
2021/09/13 03:48:26;;;;;;;14.63;9.88;;;;;;;;;;5058187;28;20500;-79
2021/09/13 03:50:52;;;;;;;14.40;9.95;;;;;;;;;;5058750;28;20036;-78
2021/09/13 03:53:18;;;;;;;13.38;9.43;;;;;;;;;;5057486;28;20083;-78
2021/09/13 03:55:44;;;;;;;12.83;9.13;;;;;;;;;;5058043;28;20479;-78
2021/09/13 03:58:09;;;;;;;10.85;8.52;;;;;;;;;;5057993;28;20450;-79
2021/09/13 04:00:35;;;;;;;11.37;8.80;;;;;;;;;;5058304;28;20107;-79
2021/09/13 04:03:03;;;;;;;14.38;9.30;;;;;;;;;;5058097;28;20045;-79
2021/09/13 04:05:29;;;;;;;13.38;8.65;;;;;;;;;;5058493;28;20032;-79
2021/09/13 04:12:49;;;;;;;13.13;8.95;;;;;;;;;;5058290;28;20044;-79
2021/09/13 04:15:14;;;;;;;12.77;8.95;;;;;;;;;;5057912;28;20024;-79
2021/09/13 04:17:41;;;;;;;14.38;8.95;;;;;;;;;;5058109;28;20032;-79
2021/09/13 04:20:07;;;;;;;12.70;9.13;;;;;;;;;;5057150;28;20033;-79
2021/09/13 04:22:32;;;;;;;11.70;8.75;;;;;;;;;;5058104;28;20048;-79
2021/09/13 04:24:58;;;;;;;11.93;9.05;;;;;;;;;;5058508;28;20029;-78
2021/09/13 04:27:24;;;;;;;10.65;8.43;;;;;;;;;;5057986;28;20021;-79
2021/09/13 04:29:49;;;;;;;14.32;9.00;;;;;;;;;;5057388;28;20039;-79
2021/09/13 04:32:14;;;;;;;12.53;8.67;;;;;;;;;;5058525;28;20103;-78
2021/09/13 04:34:40;;;;;;;12.00;9.40;;;;;;;;;;5063002;28;20029;-78
2021/09/13 04:37:05;;;;;;;11.25;8.63;;;;;;;;;;5064534;28;20028;-79
2021/09/13 04:39:31;;;;;;;12.10;8.63;;;;;;;;;;5062348;28;20036;-78
2021/09/13 04:41:56;;;;;;;12.35;9.52;;;;;;;;;;5057294;28;20158;-79
2021/09/13 04:44:21;;;;;;;12.68;8.05;;;;;;;;;;5057331;28;20122;-79
2021/09/13 04:46:47;;;;;;;13.30;8.15;;;;;;;;;;5062742;28;20359;-79
2021/09/13 04:49:12;;;;;;;9.82;7.93;;;;;;;;;;5061761;28;20466;-79
2021/09/13 04:51:37;;;;;;;9.98;8.20;;;;;;;;;;5062481;28;20024;-79
2021/09/13 04:54:03;;;;;;;10.73;7.83;;;;;;;;;;5061908;28;20036;-79
2021/09/13 04:56:28;;;;;;;11.60;8.02;;;;;;;;;;5061335;28;20025;-79
2021/09/13 04:58:54;;;;;;;13.80;9.15;;;;;;;;;;5059254;28;20025;-79
2021/09/13 05:01:19;;;;;;;12.18;8.55;;;;;;;;;;5059022;28;20077;-79
2021/09/13 05:03:45;;;;;;;11.50;8.07;;;;;;;;;;5060211;28;20471;-79
2021/09/13 05:06:10;;;;;;;12.97;8.17;;;;;;;;;;5059863;28;20093;-79
2021/09/13 05:08:35;;;;;;;8.90;7.50;;;;;;;;;;5060929;28;20032;-79
2021/09/13 05:11:01;;;;;;;8.25;6.60;;;;;;;;;;5060387;28;20025;-79
2021/09/13 05:13:26;;;;;;;12.57;7.03;;;;;;;;;;5072313;28;20005;-79
2021/09/13 05:15:52;;;;;;;11.40;6.82;;;;;;;;;;5076571;28;20028;-79
2021/09/13 05:18:17;;;;;;;9.90;7.05;;;;;;;;;;5073356;28;20040;-78
2021/09/13 05:20:43;;;;;;;13.25;7.68;;;;;;;;;;5073305;28;20021;-78
2021/09/13 05:23:08;;;;;;;8.43;6.30;;;;;;;;;;5071695;28;20025;-78
2021/09/13 05:25:33;;;;;;;10.20;6.83;;;;;;;;;;5063989;28;20078;-80
2021/09/13 05:27:58;;;;;;;10.53;5.83;;;;;;;;;;5056322;28;20073;-80
2021/09/13 05:30:24;;;;;;;7.40;5.50;;;;;;;;;;5057543;28;20116;-79
2021/09/13 05:32:49;;;;;;;7.10;5.35;;;;;;;;;;5055917;28;20121;-80
2021/09/13 05:35:15;;;;;;;7.43;5.55;;;;;;;;;;5055585;28;20061;-79
2021/09/13 05:37:40;;;;;;;7.65;5.70;;;;;;;;;;5055803;28;20031;-79
2021/09/13 05:40:06;;;;;;;7.47;4.75;;;;;;;;;;5055691;28;20082;-80
2021/09/13 05:42:33;;;;;;;8.33;4.90;;;;;;;;;;5056466;28;20024;-79
2021/09/13 05:44:58;;;;;;;7.72;5.30;;;;;;;;;;5055008;28;20056;-81
2021/09/13 05:47:24;;;;;;;9.30;5.27;;;;;;;;;;5055358;28;20451;-80
2021/09/13 05:49:49;;;;;;;8.70;5.53;;;;;;;;;;5055322;28;20021;-80
2021/09/13 05:52:15;;;;;;;8.73;5.93;;;;;;;;;;5055948;28;20033;-80
2021/09/13 05:54:41;;;;;;;10.55;6.95;;;;;;;;;;5056185;28;20031;-80
2021/09/13 05:57:06;;;;;;;10.13;7.20;;;;;;;;;;5055329;28;20131;-80
2021/09/13 05:59:32;;;;;;;11.38;7.45;;;;;;;;;;5056275;28;20086;-80
2021/09/13 06:01:57;;;;;;;12.20;8.30;;;;;;;;;;5056144;28;20089;-81
2021/09/13 06:04:22;;;;;;;14.57;9.60;;;;;;;;;;5055959;28;20036;-79
2021/09/13 06:06:48;;;;;;;13.40;8.53;;;;;;;;;;5055978;28;20027;-79
2021/09/13 06:09:13;;;;;;;11.03;8.53;;;;;;;;;;5056098;28;20020;-80
2021/09/13 06:11:38;;;;;;;15.45;9.60;;;;;;;;;;5056991;28;20041;-79
2021/09/13 06:14:04;;;;;;;19.00;8.90;;;;;;;;;;5055202;28;20417;-81
2021/09/13 06:16:29;;;;;;;11.60;9.20;;;;;;;;;;5055271;28;20059;-79
2021/09/13 06:18:55;;;;;;;12.23;9.10;;;;;;;;;;5056109;28;20435;-79
2021/09/13 06:21:20;;;;;;;11.80;8.73;;;;;;;;;;5056294;28;20032;-80
2021/09/13 06:23:46;;;;;;;13.20;10.43;;;;;;;;;;5057290;28;20033;-80
2021/09/13 06:26:12;;;;;;;15.85;10.50;;;;;;;;;;5056321;28;20044;-78
2021/09/13 06:28:38;;;;;;;14.45;10.43;;;;;;;;;;5057229;28;20048;-80
2021/09/13 06:31:03;;;;;;;12.80;10.32;;;;;;;;;;5056655;28;20028;-80
2021/09/13 06:33:30;;;;;;;13.53;10.03;;;;;;;;;;5057051;28;20151;-79
2021/09/13 06:35:55;;;;;;;14.95;11.57;;;;;;;;;;5056839;28;20520;-81
2021/09/13 06:38:21;;;;;;;18.63;12.05;;;;;;;;;;5056962;28;20037;-80
2021/09/13 06:40:46;;;;;;;19.87;11.77;;;;;;;;;;5057072;28;20028;-80
2021/09/13 06:43:14;;;;;;;26.60;12.80;;;;;;;;;;5055671;28;20370;-80
2021/09/13 06:45:41;;;;;;;18.27;12.02;;;;;;;;;;5058811;28;20108;-80
2021/09/13 06:48:09;;;;;;;14.48;11.02;;;;;;;;;;5056280;28;20020;-79
2021/09/13 06:50:36;;;;;;;17.80;12.32;;;;;;;;;;5054264;28;20045;-80
2021/09/13 06:53:01;;;;;;;13.38;11.23;;;;;;;;;;5054972;28;20419;-80
2021/09/13 06:55:27;;;;;;;14.30;11.47;;;;;;;;;;5055198;28;20029;-80
2021/09/13 06:57:52;;;;;;;21.43;11.97;;;;;;;;;;5054651;28;20017;-79
2021/09/13 07:00:20;;;;;;;16.77;12.00;;;;;;;;;;5055110;28;20350;-80
2021/09/13 07:02:46;;;;;;;15.65;11.20;;;;;;;;;;5055033;28;20036;-80
2021/09/13 07:05:12;;;;;;;16.52;9.95;;;;;;;;;;5055297;28;20025;-80
2021/09/13 07:07:38;;;;;;;14.10;10.60;;;;;;;;;;5054876;28;20083;-79
2021/09/13 07:10:05;;;;;;;12.87;9.23;;;;;;;;;;5054059;28;20281;-80
2021/09/13 07:12:31;;;;;;;13.05;8.52;;;;;;;;;;5054571;28;20051;-80
2021/09/13 07:14:56;;;;;;;11.10;7.87;;;;;;;;;;5055049;28;20431;-80
2021/09/13 07:17:22;;;;;;;11.03;7.17;;;;;;;;;;5055608;28;20033;-80
2021/09/13 07:19:47;;;;;;;11.97;7.20;;;;;;;;;;5053822;28;20033;-80
2021/09/13 07:22:12;;;;;;;10.33;7.87;;;;;;;;;;5054752;28;20025;-80
2021/09/13 07:24:41;;;;;;;8.97;6.87;;;;;;;;;;5054850;28;20116;-80
2021/09/13 07:27:07;;;;;;;10.10;7.30;;;;;;;;;;5054614;28;20021;-80
2021/09/13 07:29:32;;;;;;;9.70;6.83;;;;;;;;;;5054064;28;20082;-82
2021/09/13 07:32:01;;;;;;;9.37;6.37;;;;;;;;;;5055328;28;20069;-80
2021/09/13 07:34:27;;;;;;;10.50;6.60;;;;;;;;;;5055311;28;20358;-80
2021/09/13 07:36:54;;;;;;;8.43;5.67;;;;;;;;;;5054742;28;20492;-79
2021/09/13 07:39:20;;;;;;;11.15;6.50;;;;;;;;;;5054540;28;20033;-80
2021/09/13 07:41:45;;;;;;;9.13;6.60;;;;;;;;;;5053740;28;20051;-80
2021/09/13 07:44:10;;;;;;;9.13;5.67;;;;;;;;;;5054648;28;20175;-80
2021/09/13 07:46:36;;;;;;;10.63;5.33;;;;;;;;;;5053750;28;20064;-79
2021/09/13 07:49:02;;;;;;;9.10;5.97;;;;;;;;;;5054516;28;20029;-80
2021/09/13 07:51:28;;;;;;;6.75;5.95;;;;;;;;;;5053607;28;20090;-80
2021/09/13 07:53:54;;;;;;;7.72;5.20;;;;;;;;;;5054969;28;20405;-80
2021/09/13 07:56:19;;;;;;;5.63;4.60;;;;;;;;;;5054418;28;20032;-80
2021/09/13 07:58:44;;;;;;;5.37;4.60;;;;;;;;;;5053678;28;20025;-80
2021/09/13 08:01:09;;;;;;;9.27;5.10;;;;;;;;;;5054630;28;20029;-80
2021/09/13 08:03:35;;;;;;;6.90;4.60;;;;;;;;;;5057804;28;20364;-81
2021/09/13 08:06:00;;;;;;;7.13;5.17;;;;;;;;;;5058011;28;20454;-81
2021/09/13 08:08:25;;;;;;;5.47;4.27;;;;;;;;;;5058039;28;20180;-81
2021/09/13 08:10:51;;;;;;;5.00;4.23;;;;;;;;;;5058509;28;20442;-82
2021/09/13 08:13:16;;;;;;;4.83;4.03;;;;;;;;;;5057890;28;20033;-81
2021/09/13 08:15:41;;;;;;;6.93;4.47;;;;;;;;;;5057714;28;20036;-81
2021/09/13 08:18:07;;;;;;;6.78;5.43;;;;;;;;;;5057817;28;20025;-79
2021/09/13 08:20:32;;;;;;;5.85;4.65;;;;;;;;;;5058235;28;20033;-84
2021/09/13 08:22:57;;;;;;;6.15;4.53;;;;;;;;;;5057741;28;20071;-82
2021/09/13 08:25:23;;;;;;;6.13;4.07;;;;;;;;;;5057564;28;20044;-80
2021/09/13 08:27:48;;;;;;;;;;;;;;;;;;5057849;28;20171;-81
2021/09/13 08:30:14;;;;;;;5.10;4.03;;;;;;;;;;5057562;28;19909;-80
2021/09/13 08:32:39;;;;;;;;;;;;;;;;;;5057695;28;20367;-79
2021/09/13 08:35:05;;;;;;;6.60;4.05;;;;;;;;;;5056289;28;19939;-78
2021/09/13 08:37:30;;;;;;;6.00;4.13;;;;;;;;;;5057121;28;20029;-78
2021/09/13 08:39:55;;;;;;;6.60;4.40;;;;;;;;;;5057017;28;20410;-79
2021/09/13 08:42:21;;;;;;;9.15;4.25;;;;;;;;;;5057275;28;20029;-79
2021/09/13 08:44:49;;;;;;;5.78;3.47;;;;;;;;;;5056972;28;20510;-79
2021/09/13 08:47:27;;;;;;;5.75;3.80;;;;;;;;;;5057240;28;20377;-80
2021/09/13 08:50:01;;;;;;;5.32;3.70;;;;;;;;;;5056156;28;20458;-79
2021/09/13 08:52:26;;;;;;;5.32;3.70;;;;;;;;;;5057348;28;20029;-81
2021/09/13 08:54:52;;;;;;;7.55;4.18;;;;;;;;;;5057848;28;20039;-82
2021/09/13 08:57:19;;;;;;;5.07;3.88;;;;;;;;;;5056631;28;20029;-81
2021/09/13 08:59:47;;;;;;;6.35;4.07;;;;;;;;;;5056202;28;20021;-81
2021/09/13 09:02:12;;;;;;;6.30;3.85;;;;;;;;;;5057161;28;20017;-82
2021/09/13 09:04:42;;;;;;;6.47;4.03;;;;;;;;;;5063535;28;20029;-80
2021/09/13 09:07:09;;;;;;;6.30;4.07;;;;;;;;;;5057132;28;20028;-81
2021/09/13 09:09:36;;;;;;;4.97;4.00;;;;;;;;;;5057105;28;20118;-81
2021/09/13 09:12:02;;;;;;;5.88;4.13;;;;;;;;;;5055749;28;20017;-79
2021/09/13 09:14:41;;;;;;;6.15;4.03;;;;;;;;;;5056764;28;20025;-81
2021/09/13 09:17:15;;;;;;;7.22;6.30;;;;;;;;;;5055836;28;20366;-81
2021/09/13 09:19:41;;;;;;;5.88;4.25;;;;;;;;;;5056535;28;20029;-81
2021/09/13 09:22:28;;;;;;;5.13;3.85;;;;;;;;;;5055500;28;20431;-82
2021/09/13 09:24:55;;;;;;;4.25;3.60;;;;;;;;;;5055416;28;20108;-79
2021/09/13 09:27:22;;;;;;;5.00;3.42;;;;;;;;;;5056329;28;20059;-80
2021/09/13 09:29:47;;;;;;;4.30;3.88;;;;;;;;;;5055305;28;20021;-80
2021/09/13 09:32:23;;;;;;;4.85;3.90;;;;;;;;;;5055916;28;20051;-82
2021/09/13 09:34:49;;;;;;;5.10;3.47;;;;;;;;;;5057323;28;20104;-81
2021/09/13 09:37:15;;;;;;;6.22;3.67;;;;;;;;;;5057267;28;20415;-80
2021/09/13 09:39:44;;;;;;;6.95;4.03;;;;;;;;;;5057575;28;20447;-81
2021/09/13 09:42:13;;;;;;;7.20;4.05;;;;;;;;;;5058417;28;20021;-80
2021/09/13 09:44:44;;;;;;;7.03;3.72;;;;;;;;;;5071208;28;20078;-81
2021/09/13 09:47:13;;;;;;;9.18;5.00;;;;;;;;;;5076720;28;20037;-79
2021/09/13 09:49:41;;;;;;;5.30;3.47;;;;;;;;;;5076467;28;20047;-79
2021/09/13 09:52:07;;;;;;;4.68;3.95;;;;;;;;;;5078490;28;20400;-80
2021/09/13 09:54:32;;;;;;;4.75;3.97;;;;;;;;;;5078065;28;20036;-79
2021/09/13 09:57:01;;;;;;;5.82;3.70;;;;;;;;;;5071379;28;20041;-80
2021/09/13 09:59:36;;;;;;;5.75;4.00;;;;;;;;;;5071618;28;20132;-80
2021/09/13 10:02:16;;;;;;;5.38;3.97;;;;;;;;;;5071746;28;20025;-80
2021/09/13 10:04:42;;;;;;;5.32;3.70;;;;;;;;;;5057992;28;20101;-80
2021/09/13 10:07:13;;;;;;;5.05;4.22;;;;;;;;;;5060418;28;20021;-80
2021/09/13 10:09:39;;;;;;;6.38;4.07;;;;;;;;;;5071647;28;20021;-80
2021/09/13 10:12:05;;;;;;;5.05;4.00;;;;;;;;;;5071843;28;20031;-80
2021/09/13 10:14:32;;;;;;;6.57;4.22;;;;;;;;;;5067220;28;20025;-79
2021/09/13 10:16:58;;;;;;;4.45;3.60;;;;;;;;;;5057467;28;20029;-79
2021/09/13 10:19:25;;;;;;;12.20;11.07;;;;;;;;;;5055954;28;20051;-80
2021/09/13 10:21:52;;;;;;;5.25;4.75;;;;;;;;;;5055341;28;20439;-79
2021/09/13 10:24:24;;;;;;;5.53;3.97;;;;;;;;;;5054930;28;20166;-78
2021/09/13 10:26:54;;;;;;;4.05;3.38;;;;;;;;;;5054541;28;20105;-81
2021/09/13 10:29:23;;;;;;;4.20;3.80;;;;;;;;;;5055638;28;20017;-81
2021/09/13 10:31:49;;;;;;;4.05;3.28;;;;;;;;;;5055245;28;20455;-81
2021/09/13 10:34:15;;;;;;;4.63;3.00;;;;;;;;;;5055524;28;20039;-80
2021/09/13 10:37:08;;;;;;;5.32;3.60;;;;;;;;;;5055263;28;20106;-80
2021/09/13 10:39:51;;;;;;;6.20;3.70;;;;;;;;;;5055406;28;20020;-80
2021/09/13 10:42:37;;;;;;;4.17;3.23;;;;;;;;;;5055153;28;20032;-80
2021/09/13 10:45:28;;;;;;;5.00;3.10;;;;;;;;;;5055208;28;20294;-80
2021/09/13 10:47:54;;;;;;;4.28;3.40;;;;;;;;;;5054184;28;20032;-81
2021/09/13 10:50:22;;;;;;;4.73;2.80;;;;;;;;;;5055000;28;20094;-82
2021/09/13 10:52:56;;;;;;;3.70;3.10;;;;;;;;;;5055472;28;20628;-81
2021/09/13 10:55:37;;;;;;;5.40;2.90;;;;;;;;;;5055661;28;20370;-81
2021/09/13 10:58:11;;;;;;;6.00;3.33;;;;;;;;;;5055362;28;20040;-80
2021/09/13 11:00:40;;;;;;;4.47;3.10;;;;;;;;;;5053943;28;20039;-80
2021/09/13 11:03:28;;;;;;;3.65;2.83;;;;;;;;;;5055178;28;20025;-80
2021/09/13 11:06:05;;;;;;;4.18;2.38;;;;;;;;;;5055139;28;20032;-81
2021/09/13 11:08:52;;;;;;;3.00;2.35;;;;;;;;;;5055503;28;20404;-80
2021/09/13 11:11:19;;;;;;;3.05;2.42;;;;;;;;;;5054656;28;20116;-80
2021/09/13 11:13:47;;;;;;;3.20;2.22;;;;;;;;;;5054298;28;20025;-80
2021/09/13 11:16:19;;;;;;;3.10;2.47;;;;;;;;;;5053850;28;20051;-80
2021/09/13 11:18:47;;;;;;;2.40;1.80;;;;;;;;;;5054851;28;20439;-80
2021/09/13 11:21:27;;;;;;;2.67;2.00;;;;;;;;;;5053759;28;20522;-80
2021/09/13 11:24:03;;;;;;;2.88;2.30;;;;;;;;;;5055090;28;20124;-75
2021/09/13 11:26:34;;;;;;;3.75;2.20;;;;;;;;;;5055483;28;20055;-81
2021/09/13 11:29:09;;;;;;;3.45;2.50;;;;;;;;;;5055204;28;20442;-80
2021/09/13 11:31:38;;;;;;;3.28;2.30;;;;;;;;;;5053870;28;20028;-81
2021/09/13 11:34:37;;;;;;;4.80;2.50;;;;;;;;;;5054741;28;20443;-81
2021/09/13 11:37:09;;;;;;;4.05;2.10;;;;;;;;;;5056894;28;20029;-82
2021/09/13 11:39:45;;;;;;;3.08;2.20;;;;;;;;;;5058905;28;20056;-81
2021/09/13 11:42:25;;;;;;;3.88;2.22;;;;;;;;;;5059092;28;20107;-81
2021/09/13 11:44:53;;;;;;;3.92;2.08;;;;;;;;;;5058732;28;20060;-80
2021/09/13 11:47:21;;;;;;;2.38;1.83;;;;;;;;;;5058625;28;20048;-80
2021/09/13 11:49:48;;;;;;;3.08;2.10;;;;;;;;;;5059327;28;20056;-81
2021/09/13 11:52:15;;;;;;;3.35;2.20;;;;;;;;;;5059486;28;20384;-81
2021/09/13 11:54:45;;;;;;;3.83;2.10;;;;;;;;;;5058287;28;20025;-83
2021/09/13 11:57:20;;;;;;;2.38;1.90;;;;;;;;;;5057618;28;20033;-81
2021/09/13 11:59:53;;;;;;;3.03;2.35;;;;;;;;;;5058763;28;20351;-81
2021/09/13 12:02:19;;;;;;;5.28;2.42;;;;;;;;;;5057982;28;20020;-83
2021/09/13 12:04:44;;;;;;;2.95;2.15;;;;;;;;;;5061505;28;20036;-82
2021/09/13 12:07:11;;;;;;;4.13;2.13;;;;;;;;;;5061613;28;20048;-83
2021/09/13 12:09:39;;;;;;;5.13;2.60;;;;;;;;;;5060793;28;20106;-79
2021/09/13 12:12:06;;;;;;;5.50;2.22;;;;;;;;;;5059631;28;20131;-81
2021/09/13 12:14:33;;;;;;;7.43;6.68;;;;;;;;;;5059864;28;20126;-81
2021/09/13 12:17:16;;;;;;;4.95;4.00;;;;;;;;;;5059042;28;20025;-81
2021/09/13 12:19:48;;;;;;;2.60;2.13;;;;;;;;;;5059886;28;20029;-80
2021/09/13 12:22:15;;;;;;;3.10;2.10;;;;;;;;;;5061341;28;20048;-82
2021/09/13 12:24:43;;;;;;;3.67;2.03;;;;;;;;;;5061579;28;20036;-82
2021/09/13 12:27:18;;;;;;;2.97;2.03;;;;;;;;;;5061677;28;20028;-81
2021/09/13 12:30:03;;;;;;;4.70;1.88;;;;;;;;;;5061420;28;20029;-81
2021/09/13 12:32:34;;;;;;;3.15;2.30;;;;;;;;;;5060936;28;20027;-82
2021/09/13 12:35:04;;;;;;;4.68;2.25;;;;;;;;;;5060645;28;20025;-82
2021/09/13 12:37:40;;;;;;;3.47;1.98;;;;;;;;;;5062649;28;20070;-82
2021/09/13 12:40:05;;;;;;;3.45;2.70;;;;;;;;;;5061595;28;20053;-81
2021/09/13 12:42:31;;;;;;;3.72;3.33;;;;;;;;;;5061909;28;20021;-81
2021/09/13 12:45:04;;;;;;;2.50;1.95;;;;;;;;;;5062767;28;20064;-82
2021/09/13 12:47:29;;;;;;;3.85;2.25;;;;;;;;;;5059650;28;20017;-81
2021/09/13 12:49:55;;;;;;;3.30;2.10;;;;;;;;;;5059234;28;20017;-82
2021/09/13 12:52:21;;;;;;;3.13;2.00;;;;;;;;;;5056594;28;20136;-83
2021/09/13 12:54:46;;;;;;;3.60;2.08;;;;;;;;;;5059032;28;20035;-81
2021/09/13 12:57:12;;;;;;;3.67;2.05;;;;;;;;;;5058069;28;20409;-81
2021/09/13 12:59:37;;;;;;;3.40;2.33;;;;;;;;;;5057013;28;20506;-79
2021/09/13 13:02:14;;;;;;;3.40;2.08;;;;;;;;;;5057038;28;20024;-77
2021/09/13 13:04:40;;;;;;;2.75;1.90;;;;;;;;;;5057829;28;20350;-81
2021/09/13 13:07:10;;;;;;;4.88;2.35;;;;;;;;;;5055802;28;20029;-82
2021/09/13 13:09:36;;;;;;;2.92;2.15;;;;;;;;;;5056197;28;20451;-80
2021/09/13 13:12:01;;;;;;;3.75;2.35;;;;;;;;;;5057826;28;20041;-81
2021/09/13 13:14:26;;;;;;;2.88;2.15;;;;;;;;;;5056896;28;20035;-79
2021/09/13 13:16:52;;;;;;;3.47;2.30;;;;;;;;;;5057605;28;20435;-81
2021/09/13 13:19:17;;;;;;;5.00;2.10;;;;;;;;;;5057028;28;20029;-81
2021/09/13 13:21:45;;;;;;;3.90;2.10;;;;;;;;;;5055908;28;20476;-82
2021/09/13 13:24:14;;;;;;;3.20;1.80;;;;;;;;;;5056674;28;20040;-82
2021/09/13 13:26:41;;;;;;;2.90;1.92;;;;;;;;;;5057015;28;20071;-82
2021/09/13 13:29:07;;;;;;;3.67;2.03;;;;;;;;;;5056596;28;20028;-82
2021/09/13 13:31:34;;;;;;;3.85;2.00;;;;;;;;;;5056020;28;20029;-82
2021/09/13 13:33:59;;;;;;;5.70;2.47;;;;;;;;;;5057304;28;20029;-81
2021/09/13 13:36:25;;;;;;;4.80;2.00;;;;;;;;;;5056675;28;20082;-82
2021/09/13 13:38:51;;;;;;;4.10;1.90;;;;;;;;;;5056374;28;20095;-79
2021/09/13 13:41:16;;;;;;;4.55;2.13;;;;;;;;;;5055651;28;20029;-82
2021/09/13 13:43:42;;;;;;;4.43;1.95;;;;;;;;;;5056597;28;20429;-81
2021/09/13 13:46:08;;;;;;;4.03;2.25;;;;;;;;;;5056687;28;20033;-79
2021/09/13 13:48:33;;;;;;;5.72;2.05;;;;;;;;;;5056277;28;20443;-80
2021/09/13 13:50:59;;;;;;;4.53;2.05;;;;;;;;;;5055264;28;20039;-80
2021/09/13 13:53:24;;;;;;;4.20;1.65;;;;;;;;;;5056043;28;20355;-81
2021/09/13 13:55:50;;;;;;;4.28;1.92;;;;;;;;;;5055086;28;20025;-80
2021/09/13 13:58:15;;;;;;;4.50;2.45;;;;;;;;;;5054954;28;20025;-80
2021/09/13 14:00:41;;;;;;;;;;;;;;;;;;5056047;28;20021;-81
2021/09/13 14:03:07;;;;;;;;;;;;;;;;;;5056595;28;19920;-81
2021/09/13 14:05:33;;;;;;;4.05;1.88;;;;;;;;;;5057549;28;19962;-79
2021/09/13 14:08:00;;;;;;;4.03;1.95;;;;;;;;;;5057985;28;20406;-80
2021/09/13 14:10:27;;;;;;;3.13;2.00;;;;;;;;;;5060374;28;20024;-80
2021/09/13 14:12:52;;;;;;;4.93;1.92;;;;;;;;;;5063693;28;20028;-80
2021/09/13 14:15:18;;;;;;;4.88;2.35;;;;;;;;;;5071738;28;20033;-80
2021/09/13 14:17:43;;;;;;;5.53;2.20;;;;;;;;;;5073215;28;20028;-80
2021/09/13 14:20:10;;;;;;;;;;;;;;;;;;5071774;28;20029;-80
2021/09/13 14:22:35;;;;;;;10.50;1.95;;;;;;;;;;5059568;28;19909;-81
2021/09/13 14:25:01;;;;;;;4.38;2.20;;;;;;;;;;5057459;28;20033;-79
2021/09/13 14:27:26;;;;;;;;;;;;;;;;;;5057793;28;20017;-78
2021/09/13 14:29:52;;;;;;;;;;;;;;;;;;5057160;28;20354;-79
2021/09/13 14:32:17;;;;;;;;;;;;;;;;;;5055868;28;19971;-80
2021/09/13 14:34:43;;;;;;;;;;;;;;;;;;5057098;28;19917;-80
2021/09/13 14:37:08;;;;;;;4.80;2.15;;;;;;;;;;5056216;28;19909;-80
2021/09/13 14:39:33;;;;;;;;;;;;;;;;;;5058095;28;20024;-79
2021/09/13 14:41:59;;;;;;;5.67;2.00;;;;;;;;;;5062358;28;19919;-79
2021/09/13 14:44:24;;;;;;;;;;;;;;;;;;5063337;28;20059;-80
2021/09/13 14:46:49;;;;;;;4.57;2.00;;;;;;;;;;5064031;28;19940;-80